Panevezys, Lithuania
Current Conditions -  °F | °C
As of 10:50 PM on Monday 22 Dec 2014 (Local Time) from EYSA Reporting Station
Broken Clouds Broken Clouds  
Wind Chill: 36°   Ceiling: 1700
Heat Index: 43°   Visibility: 6mi
Dew Point: 41°   Wind: 13mph
Humidity: 93%   Direction: 260°W
Pressure: 29.23"   Gusts: NA
Location:  55.74°N, 24.37°E
Report Text: EYSA 221950Z 26011KT 9999 SCT014 BKN017 BKN037 06/05 Q0990 R14L/29//95 R14R/29//95
Loading
Personal Weather Stations






























Interactive Weather Map New forecast layout! Learn more

10-Day Weather Forecast

Advertisements
Track Severe Weather on mobile